Time;durP1;ratioP1;P1;durP2;ratioP2;P2;SDS_P1;SDS_P2;PMS_P1;PMS_P2;Temp;Humidity;BMP_temperature;BMP_pressure;BME280_temperature;BME280_humidity;BME280_pressure;Samples;Min_cycle;Max_cycle;Signal;HPM_P1;HPM_P2
2021/09/20 00:02:21;;;;;;;6.47;5.50;;;18.40;99.90;;;;;;6278763;22;20146;-84
2021/09/20 00:04:47;;;;;;;9.33;5.47;;;18.30;99.90;;;;;;6280178;22;20148;-92
2021/09/20 00:07:13;;;;;;;8.17;5.70;;;18.40;99.90;;;;;;6279700;22;20800;-92
2021/09/20 00:09:39;;;;;;;7.63;5.67;;;18.40;99.90;;;;;;6253168;22;20489;-91
2021/09/20 00:12:05;;;;;;;7.77;5.43;;;18.60;99.90;;;;;;6251945;22;20149;-92
2021/09/20 00:14:31;;;;;;;5.97;5.23;;;18.70;99.90;;;;;;6251664;22;20156;-92
2021/09/20 00:16:56;;;;;;;8.73;5.53;;;18.70;99.90;;;;;;6279179;22;20468;-92
2021/09/20 00:19:22;;;;;;;6.93;5.53;;;18.60;99.90;;;;;;6278821;22;20188;-91
2021/09/20 00:21:48;;;;;;;6.97;5.67;;;18.80;99.90;;;;;;6254194;22;20182;-90
2021/09/20 00:24:13;;;;;;;8.23;5.70;;;18.80;99.90;;;;;;6254314;22;20168;-91
2021/09/20 00:26:39;;;;;;;7.07;5.43;;;18.70;99.90;;;;;;6278862;22;20133;-92
2021/09/20 00:29:05;;;;;;;7.23;5.57;;;18.60;99.90;;;;;;6253338;22;20581;-89
2021/09/20 00:31:30;;;;;;;8.20;5.27;;;18.60;99.90;;;;;;6254382;22;20186;-92
2021/09/20 00:33:56;;;;;;;7.73;6.10;;;18.60;99.90;;;;;;6281104;22;20168;-92
2021/09/20 00:36:21;;;;;;;11.17;5.87;;;18.70;99.90;;;;;;6253474;22;20270;-85
2021/09/20 00:38:47;;;;;;;7.17;5.80;;;18.70;99.90;;;;;;6252770;22;20614;-90
2021/09/20 00:41:13;;;;;;;6.33;4.63;;;18.70;99.90;;;;;;6281883;22;20172;-89
2021/09/20 00:43:38;;;;;;;8.30;5.80;;;18.80;99.90;;;;;;6281199;22;20138;-91
2021/09/20 00:46:08;;;;;;;8.27;5.83;;;18.80;99.90;;;;;;6252541;22;20137;-86
2021/09/20 00:48:34;;;;;;;8.07;5.40;;;18.70;99.90;;;;;;6251573;22;20235;-92
2021/09/20 00:51:00;;;;;;;7.07;5.60;;;18.80;99.90;;;;;;6280318;22;20136;-88
2021/09/20 00:53:25;;;;;;;7.93;6.30;;;18.60;99.90;;;;;;6282773;22;20136;-92
2021/09/20 00:55:51;;;;;;;7.87;6.40;;;18.50;99.90;;;;;;6252174;22;20151;-92
2021/09/20 00:58:17;;;;;;;7.70;5.97;;;18.40;99.90;;;;;;6277053;22;20177;-87
2021/09/20 01:00:42;;;;;;;7.77;6.27;;;18.40;99.90;;;;;;6276632;22;20573;-90
2021/09/20 01:03:08;;;;;;;7.27;5.57;;;18.50;99.90;;;;;;6277068;22;20144;-92
2021/09/20 01:05:34;;;;;;;7.13;6.17;;;18.60;99.90;;;;;;6276655;22;20167;-93
2021/09/20 01:07:59;;;;;;;7.83;6.40;;;18.60;99.90;;;;;;6250504;22;20154;-93
2021/09/20 01:10:25;;;;;;;8.43;6.77;;;18.50;99.90;;;;;;6276784;22;20127;-91
2021/09/20 01:12:51;;;;;;;8.60;6.70;;;18.50;99.90;;;;;;6277089;22;20626;-91
2021/09/20 01:15:16;;;;;;;9.10;6.27;;;18.60;99.90;;;;;;6277196;22;20594;-91
2021/09/20 01:17:42;;;;;;;8.77;6.20;;;18.60;99.90;;;;;;6276466;22;20253;-92
2021/09/20 01:20:10;;;;;;;7.97;6.17;;;18.60;99.90;;;;;;6249907;22;20162;-92
2021/09/20 01:22:37;;;;;;;10.07;6.67;;;18.60;99.90;;;;;;6276972;22;20136;-90
2021/09/20 01:25:04;;;;;;;7.73;6.43;;;18.60;99.90;;;;;;6250030;22;20156;-91
2021/09/20 01:27:30;;;;;;;8.03;6.33;;;18.70;99.90;;;;;;6276805;22;20132;-93
2021/09/20 01:29:56;;;;;;;7.40;6.13;;;18.70;99.90;;;;;;6276410;22;20167;-92
2021/09/20 01:32:22;;;;;;;8.37;6.67;;;18.60;99.90;;;;;;6277108;22;20132;-93
2021/09/20 01:34:48;;;;;;;10.83;7.07;;;18.50;99.90;;;;;;6275806;22;20143;-93
2021/09/20 01:37:14;;;;;;;8.03;6.33;;;18.50;99.90;;;;;;6276672;22;20159;-88
2021/09/20 01:39:39;;;;;;;8.77;6.40;;;18.60;99.90;;;;;;6277180;22;20151;-88
2021/09/20 01:42:06;;;;;;;7.70;5.93;;;18.70;99.90;;;;;;6250121;22;20143;-92
2021/09/20 01:44:32;;;;;;;9.30;6.93;;;18.80;99.90;;;;;;6249921;22;20563;-92
2021/09/20 01:46:58;;;;;;;8.40;6.77;;;18.70;99.90;;;;;;6249626;22;20262;-92
2021/09/20 01:49:26;;;;;;;11.00;6.50;;;18.60;99.90;;;;;;6276059;22;20664;-92
2021/09/20 01:51:52;;;;;;;8.73;7.27;;;18.50;99.90;;;;;;6249655;22;20200;-84
2021/09/20 01:54:18;;;;;;;8.53;6.77;;;18.40;99.90;;;;;;6276548;22;20138;-91
2021/09/20 01:56:44;;;;;;;9.53;6.63;;;18.40;99.90;;;;;;6277074;22;20140;-79
2021/09/20 01:59:10;;;;;;;9.77;6.77;;;18.30;99.90;;;;;;6276732;22;20171;-78
2021/09/20 02:01:37;;;;;;;8.37;6.93;;;18.50;99.90;;;;;;6280398;22;20211;-92
2021/09/20 02:04:03;;;;;;;10.50;6.40;;;18.50;99.90;;;;;;6281568;22;20143;-93
2021/09/20 02:06:29;;;;;;;8.77;6.03;;;18.60;99.90;;;;;;6278197;22;20316;-86
2021/09/20 02:08:55;;;;;;;9.23;6.23;;;18.60;99.90;;;;;;6277031;22;20428;-91
2021/09/20 02:11:23;;;;;;;8.40;6.43;;;18.40;99.90;;;;;;6250010;22;20150;-91
2021/09/20 02:13:49;;;;;;;9.27;6.83;;;18.20;99.90;;;;;;6249918;22;20158;-92
2021/09/20 02:16:15;;;;;;;7.57;6.03;;;18.30;99.90;;;;;;6251423;22;20160;-85
2021/09/20 02:18:41;;;;;;;7.80;6.13;;;18.40;99.90;;;;;;6251646;22;20171;-92
2021/09/20 02:21:08;;;;;;;8.57;6.27;;;18.20;99.90;;;;;;6278189;22;20131;-93
2021/09/20 02:23:34;;;;;;;8.23;6.20;;;18.10;99.90;;;;;;6251724;22;20154;-88
2021/09/20 02:26:01;;;;;;;9.83;6.50;;;17.90;99.90;;;;;;6251676;22;20157;-93
2021/09/20 02:28:27;;;;;;;7.73;6.03;;;18.10;99.90;;;;;;6281907;22;20136;-91
2021/09/20 02:30:53;;;;;;;11.23;7.10;;;18.00;99.90;;;;;;6282833;22;20237;-92
2021/09/20 02:33:19;;;;;;;8.87;6.50;;;17.90;99.90;;;;;;6251456;22;20147;-92
2021/09/20 02:35:45;;;;;;;11.07;6.87;;;17.80;99.90;;;;;;6277939;22;20234;-89
2021/09/20 02:38:11;;;;;;;11.33;6.63;;;17.60;99.90;;;;;;6251665;22;20184;-86
2021/09/20 02:40:37;;;;;;;10.07;6.97;;;17.60;99.90;;;;;;6278570;22;20185;-90
2021/09/20 02:43:04;;;;;;;8.53;6.87;;;17.40;99.90;;;;;;6278635;22;20193;-91
2021/09/20 02:45:30;;;;;;;11.07;6.93;;;17.40;99.90;;;;;;6251341;22;20167;-89
2021/09/20 02:47:56;;;;;;;8.67;6.73;;;17.40;99.90;;;;;;6251414;22;20147;-85
2021/09/20 02:50:22;;;;;;;10.87;6.40;;;17.50;99.90;;;;;;6278247;22;20170;-93
2021/09/20 02:52:47;;;;;;;9.40;6.53;;;17.50;99.90;;;;;;6251003;22;20243;-93
2021/09/20 02:55:13;;;;;;;9.47;6.70;;;17.70;99.90;;;;;;6278261;22;20142;-86
2021/09/20 02:57:40;;;;;;;9.00;7.13;;;17.80;99.90;;;;;;6278175;22;20240;-92
2021/09/20 03:00:07;;;;;;;9.77;7.13;;;17.70;99.90;;;;;;6250859;22;20155;-92
2021/09/20 03:02:33;;;;;;;9.27;6.93;;;17.60;99.90;;;;;;6249672;22;20154;-92
2021/09/20 03:04:59;;;;;;;11.13;6.63;;;17.60;99.90;;;;;;6251256;22;20224;-92
2021/09/20 03:07:25;;;;;;;10.70;7.33;;;17.70;99.90;;;;;;6278669;22;20135;-93
2021/09/20 03:09:51;;;;;;;11.23;6.83;;;17.60;99.90;;;;;;6250839;22;20463;-92
2021/09/20 03:12:17;;;;;;;11.53;7.67;;;17.50;99.90;;;;;;6251575;22;20154;-90
2021/09/20 03:14:42;;;;;;;13.37;7.77;;;17.40;99.90;;;;;;6250895;22;20143;-91
2021/09/20 03:17:08;;;;;;;8.73;7.10;;;17.60;99.90;;;;;;6277813;22;20141;-92
2021/09/20 03:19:34;;;;;;;9.27;6.80;;;17.50;99.90;;;;;;6251057;22;20249;-89
2021/09/20 03:22:00;;;;;;;12.90;7.20;;;17.30;99.90;;;;;;6278374;22;20213;-91
2021/09/20 03:24:25;;;;;;;9.23;6.40;;;17.40;99.90;;;;;;6278357;22;20146;-92
2021/09/20 03:26:51;;;;;;;12.27;7.67;;;17.40;99.90;;;;;;6277942;22;20135;-92
2021/09/20 03:29:18;;;;;;;12.10;7.93;;;17.50;99.90;;;;;;6277995;22;20169;-93
2021/09/20 03:31:44;;;;;;;10.70;7.50;;;17.30;99.90;;;;;;6250580;22;20169;-93
2021/09/20 03:34:09;;;;;;;9.53;7.70;;;17.30;99.90;;;;;;6277839;22;20211;-92
2021/09/20 03:36:35;;;;;;;9.13;7.00;;;17.20;99.90;;;;;;6277912;22;20134;-92
2021/09/20 03:39:01;;;;;;;10.50;7.10;;;17.20;99.90;;;;;;6277917;22;20171;-93
2021/09/20 03:41:26;;;;;;;12.80;7.57;;;17.20;99.90;;;;;;6277982;22;20158;-87
2021/09/20 03:43:53;;;;;;;9.83;7.10;;;17.00;99.90;;;;;;6250388;22;20147;-89
2021/09/20 03:46:19;;;;;;;14.13;7.83;;;17.10;99.90;;;;;;6278041;22;20135;-91
2021/09/20 03:48:44;;;;;;;12.37;7.90;;;17.20;99.90;;;;;;6250499;22;20243;-90
2021/09/20 03:51:10;;;;;;;9.07;7.13;;;17.30;99.90;;;;;;6251912;22;20311;-88
2021/09/20 03:53:36;;;;;;;14.23;7.93;;;17.20;99.90;;;;;;6277736;22;20141;-91
2021/09/20 03:56:02;;;;;;;11.93;8.33;;;17.20;99.90;;;;;;6251816;22;20590;-89
2021/09/20 03:58:28;;;;;;;10.87;7.07;;;17.20;99.90;;;;;;6249870;22;20208;-91
2021/09/20 04:00:53;;;;;;;12.60;7.63;;;17.20;99.90;;;;;;6250176;22;20580;-92
2021/09/20 04:03:19;;;;;;;10.30;6.93;;;17.20;99.90;;;;;;6276980;22;20559;-92
2021/09/20 04:05:45;;;;;;;9.77;6.77;;;17.10;99.90;;;;;;6250522;22;20146;-92
2021/09/20 04:08:14;;;;;;;10.43;7.57;;;17.00;99.90;;;;;;6250640;22;20151;-93
2021/09/20 04:10:40;;;;;;;12.43;7.47;;;17.10;99.90;;;;;;6250726;22;20156;-87
2021/09/20 04:13:06;;;;;;;10.93;7.93;;;17.20;99.90;;;;;;6249999;22;20151;-91
2021/09/20 04:15:31;;;;;;;12.23;7.20;;;17.30;99.90;;;;;;6276917;22;20188;-91
2021/09/20 04:17:57;;;;;;;13.10;8.47;;;17.40;99.90;;;;;;6250387;22;20232;-91
2021/09/20 04:20:23;;;;;;;12.70;7.73;;;17.40;99.90;;;;;;6276455;22;20150;-85
2021/09/20 04:22:48;;;;;;;11.80;7.77;;;17.30;99.90;;;;;;6249986;22;20224;-90
2021/09/20 04:25:14;;;;;;;9.90;7.47;;;17.30;99.90;;;;;;6250443;22;20151;-90
2021/09/20 04:27:40;;;;;;;11.37;7.47;;;17.10;99.90;;;;;;6276493;22;20514;-87
2021/09/20 04:30:07;;;;;;;11.60;7.80;;;17.10;99.90;;;;;;6276047;22;20158;-86
2021/09/20 04:32:32;;;;;;;10.57;7.20;;;17.00;99.90;;;;;;6276618;22;20150;-88
2021/09/20 04:34:58;;;;;;;12.13;7.83;;;17.00;99.90;;;;;;6277032;22;20139;-85
2021/09/20 04:37:24;;;;;;;16.70;8.80;;;16.90;99.90;;;;;;6249295;22;20165;-85
2021/09/20 04:39:49;;;;;;;12.70;7.73;;;17.00;99.90;;;;;;6250247;22;20155;-78
2021/09/20 04:42:15;;;;;;;11.73;8.30;;;17.00;99.90;;;;;;6277130;22;20135;-92
2021/09/20 04:44:42;;;;;;;11.53;8.20;;;16.90;99.90;;;;;;6273263;22;20142;-86
2021/09/20 04:47:07;;;;;;;10.83;8.10;;;17.00;99.90;;;;;;6273288;22;20160;-89
2021/09/20 04:49:33;;;;;;;13.13;8.57;;;17.00;99.90;;;;;;6247351;22;20170;-88
2021/09/20 04:51:59;;;;;;;14.10;8.57;;;17.10;99.90;;;;;;6248563;22;20531;-90
2021/09/20 04:54:25;;;;;;;11.03;8.40;;;17.10;99.90;;;;;;6277441;22;20131;-88
2021/09/20 04:56:50;;;;;;;12.13;7.70;;;17.00;99.90;;;;;;6279191;22;20139;-89
2021/09/20 04:59:16;;;;;;;10.43;7.93;;;16.90;99.90;;;;;;6277388;22;20183;-89
2021/09/20 05:01:42;;;;;;;11.17;7.73;;;16.80;99.90;;;;;;6278854;22;20162;-82
2021/09/20 05:04:09;;;;;;;9.30;7.60;;;16.70;99.90;;;;;;6285804;22;20138;-81
2021/09/20 05:06:35;;;;;;;11.83;7.90;;;16.60;99.90;;;;;;6284299;22;20133;-84
2021/09/20 05:09:02;;;;;;;9.70;8.17;;;16.80;99.90;;;;;;6249911;22;20207;-79
2021/09/20 05:11:28;;;;;;;9.90;7.43;;;16.80;99.90;;;;;;6276398;22;20134;-80
2021/09/20 05:13:54;;;;;;;12.67;8.57;;;16.70;99.90;;;;;;6276029;22;20141;-87
2021/09/20 05:16:20;;;;;;;13.47;8.40;;;16.60;99.90;;;;;;6249839;22;20156;-86
2021/09/20 05:18:46;;;;;;;12.67;8.33;;;16.60;99.90;;;;;;6249202;22;20276;-91
2021/09/20 05:32:35;;;;;;;12.27;7.97;;;16.40;99.90;;;;;;6257649;22;20216;-93
2021/09/20 05:35:02;;;;;;;12.90;7.57;;;16.60;99.90;;;;;;6249411;22;20175;-86
2021/09/20 05:37:28;;;;;;;12.10;8.37;;;16.60;99.90;;;;;;6248833;22;20141;-86
2021/09/20 05:39:54;;;;;;;10.30;8.23;;;16.50;99.90;;;;;;6247677;22;20168;-88
2021/09/20 05:42:20;;;;;;;12.10;8.07;;;16.50;99.90;;;;;;6252070;22;20149;-88
2021/09/20 05:44:46;;;;;;;12.47;8.70;;;16.60;99.90;;;;;;6256865;22;20158;-86
2021/09/20 05:47:12;;;;;;;11.40;8.00;;;16.50;99.90;;;;;;6251687;22;20154;-88
2021/09/20 05:49:38;;;;;;;9.53;7.63;;;16.60;99.90;;;;;;6249560;22;20153;-89
2021/09/20 05:52:04;;;;;;;10.53;8.33;;;16.50;99.90;;;;;;6250895;22;20224;-88
2021/09/20 05:54:30;;;;;;;12.97;8.57;;;16.50;99.90;;;;;;6249987;22;20267;-88
2021/09/20 05:56:56;;;;;;;10.70;7.87;;;16.60;99.90;;;;;;6250155;22;20142;-88
2021/09/20 05:59:21;;;;;;;8.97;7.70;;;16.60;99.90;;;;;;6245356;22;20198;-88
2021/09/20 06:01:47;;;;;;;11.60;7.60;;;16.60;99.90;;;;;;6251272;22;20158;-88
2021/09/20 06:04:15;;;;;;;10.30;8.17;;;16.70;99.90;;;;;;6249445;22;20547;-88
2021/09/20 06:06:44;;;;;;;10.23;7.60;;;16.60;99.90;;;;;;6252446;22;20601;-88
2021/09/20 06:09:12;;;;;;;12.53;8.43;;;16.60;99.90;;;;;;6250582;22;20153;-87
2021/09/20 06:11:41;;;;;;;12.00;7.80;;;16.60;99.90;;;;;;6250084;22;20765;-86
2021/09/20 06:14:27;;;;;;;13.47;8.13;;;16.70;99.90;;;;;;6251644;22;20157;-92
2021/09/20 06:16:54;;;;;;;11.60;8.43;;;16.70;99.90;;;;;;6254669;22;20172;-86
2021/09/20 06:19:35;;;;;;;16.00;9.53;;;16.80;99.90;;;;;;6255679;22;20182;-92
2021/09/20 06:26:25;;;;;;;12.63;8.67;;;16.80;99.90;;;;;;6187659;23;20159;-92
2021/09/20 14:10:51;;;;;;;13.90;9.00;;;31.70;58.70;;;;;;6257635;22;20244;-82
2021/09/20 14:13:17;;;;;;;10.60;9.27;;;31.70;59.50;;;;;;6278472;22;20150;-81
2021/09/20 14:15:45;;;;;;;11.95;9.27;;;32.20;58.40;;;;;;6251160;22;20161;-89
2021/09/20 14:18:11;;;;;;;9.75;7.88;;;32.50;57.90;;;;;;6252009;22;20170;-90
2021/09/20 14:20:37;;;;;;;9.57;8.55;;;33.10;58.40;;;;;;6251985;22;20147;-89
2021/09/20 14:23:03;;;;;;;9.80;8.20;;;33.80;57.60;;;;;;6251538;22;20531;-90
2021/09/20 14:25:31;;;;;;;10.80;8.10;;;34.30;57.40;;;;;;6278895;22;20192;-89
2021/09/20 14:27:59;;;;;;;11.13;9.55;;;34.30;57.40;;;;;;6251918;22;20619;-83
2021/09/20 14:30:25;;;;;;;11.80;9.07;;;34.10;56.90;;;;;;6251817;22;20181;-82
2021/09/20 14:32:52;;;;;;;11.00;8.65;;;34.30;57.40;;;;;;6278524;22;20142;-82
2021/09/20 14:35:18;;;;;;;10.73;8.77;;;34.20;56.60;;;;;;6278952;22;20210;-83
2021/09/20 14:37:44;;;;;;;11.30;9.25;;;33.70;57.00;;;;;;6278538;22;20139;-82
2021/09/20 14:40:20;;;;;;;11.35;8.63;;;33.10;57.10;;;;;;6251910;22;20173;-90
2021/09/20 14:42:47;;;;;;;12.18;9.82;;;32.70;58.30;;;;;;6251512;22;20635;-90
2021/09/20 14:45:14;;;;;;;10.10;8.60;;;33.20;57.60;;;;;;6251248;22;20165;-89
2021/09/20 14:47:42;;;;;;;12.32;10.25;;;33.10;57.60;;;;;;6251531;22;20219;-90
2021/09/20 14:50:11;;;;;;;11.02;8.68;;;33.20;57.40;;;;;;6278930;22;20572;-91
2021/09/20 14:52:37;;;;;;;11.18;9.75;;;33.30;58.00;;;;;;6251662;22;20143;-92
2021/09/20 14:55:04;;;;;;;13.93;9.68;;;33.80;57.10;;;;;;6252056;22;20158;-90
2021/09/20 14:57:30;;;;;;;13.70;9.27;;;34.10;56.90;;;;;;6251864;22;20180;-89
2021/09/20 14:59:57;;;;;;;11.63;10.07;;;34.30;56.40;;;;;;6251781;22;20250;-90
2021/09/20 15:02:23;;;;;;;12.43;9.80;;;34.50;56.50;;;;;;6251710;22;20145;-91
2021/09/20 15:04:48;;;;;;;11.10;9.25;;;34.70;56.30;;;;;;6278690;22;20147;-91
2021/09/20 15:07:14;;;;;;;13.43;10.23;;;34.10;57.00;;;;;;6251250;22;20230;-91
2021/09/20 15:09:40;;;;;;;11.82;10.48;;;33.60;57.20;;;;;;6279308;22;20135;-91
2021/09/20 15:12:06;;;;;;;11.15;9.35;;;33.10;57.30;;;;;;6278644;22;20193;-91
2021/09/20 15:14:31;;;;;;;11.45;9.13;;;32.70;58.30;;;;;;6250874;22;20150;-91
2021/09/20 15:16:57;;;;;;;13.45;10.52;;;33.10;58.00;;;;;;6278152;22;20486;-90
2021/09/20 15:19:23;;;;;;;14.50;10.45;;;32.80;57.60;;;;;;6278497;22;20178;-92
2021/09/20 15:21:49;;;;;;;13.52;10.88;;;32.00;58.20;;;;;;6250901;22;20556;-91
2021/09/20 15:24:15;;;;;;;11.80;9.65;;;31.70;58.80;;;;;;6251612;22;20150;-92
2021/09/20 15:26:41;;;;;;;12.10;10.45;;;31.80;58.80;;;;;;6251395;22;20488;-91
2021/09/20 15:29:07;;;;;;;11.13;10.00;;;31.90;58.20;;;;;;6251605;22;20249;-91
2021/09/20 15:31:34;;;;;;;13.25;10.52;;;31.50;58.30;;;;;;6277948;22;20160;-91
2021/09/20 15:34:00;;;;;;;13.95;10.18;;;31.20;59.30;;;;;;6251162;22;20150;-87
2021/09/20 15:36:26;;;;;;;12.32;9.80;;;31.00;59.60;;;;;;6249372;22;20170;-91
2021/09/20 15:38:51;;;;;;;11.60;10.07;;;31.40;59.60;;;;;;6249123;22;20236;-87
2021/09/20 15:41:19;;;;;;;11.40;10.30;;;31.70;58.90;;;;;;6249387;22;20155;-92
2021/09/20 15:43:47;;;;;;;11.60;10.43;;;31.50;58.60;;;;;;6251460;22;20151;-91
2021/09/20 15:46:15;;;;;;;11.77;10.43;;;31.70;58.70;;;;;;6251841;22;20229;-90
2021/09/20 15:48:41;;;;;;;14.57;10.43;;;31.80;58.70;;;;;;6278297;22;20135;-92
2021/09/20 15:51:07;;;;;;;11.73;10.52;;;31.70;58.80;;;;;;6251453;22;20149;-91
2021/09/20 15:53:33;;;;;;;12.25;10.95;;;31.50;58.70;;;;;;6278160;22;20131;-91
2021/09/20 15:55:58;;;;;;;12.43;11.33;;;31.20;58.60;;;;;;6252338;22;20568;-89
2021/09/20 15:58:24;;;;;;;15.77;11.85;;;30.70;59.80;;;;;;6251606;22;20261;-92
2021/09/20 16:00:50;;;;;;;12.20;11.07;;;30.20;59.80;;;;;;6251235;22;20157;-92
2021/09/20 16:03:16;;;;;;;13.23;12.03;;;30.20;60.20;;;;;;6251334;22;20150;-92
2021/09/20 16:05:44;;;;;;;13.00;11.70;;;30.40;59.70;;;;;;6249620;22;20215;-91
2021/09/20 16:08:10;;;;;;;12.70;11.50;;;30.30;59.40;;;;;;6276383;22;20159;-90
2021/09/20 16:10:36;;;;;;;12.80;11.70;;;29.80;60.20;;;;;;6250812;22;20198;-91
2021/09/20 16:13:02;;;;;;;15.03;12.67;;;29.00;61.10;;;;;;6251052;22;20489;-89
2021/09/20 16:15:30;;;;;;;13.07;11.77;;;28.50;61.60;;;;;;6251422;22;20146;-91
2021/09/20 16:17:56;;;;;;;12.97;11.77;;;28.10;62.90;;;;;;6250988;22;20212;-91
2021/09/20 16:20:22;;;;;;;13.80;11.93;;;28.30;63.80;;;;;;6250719;22;20178;-90
2021/09/20 16:22:50;;;;;;;13.90;11.77;;;28.50;63.00;;;;;;6250993;22;20185;-90
2021/09/20 16:25:17;;;;;;;12.33;11.23;;;28.80;62.20;;;;;;6251017;22;20158;-90
2021/09/20 16:27:42;;;;;;;12.80;11.57;;;29.00;62.50;;;;;;6277865;22;20242;-91
2021/09/20 16:30:09;;;;;;;12.70;11.37;;;28.80;62.30;;;;;;6250982;22;20153;-87
2021/09/20 16:32:35;;;;;;;12.67;11.37;;;28.20;62.90;;;;;;6250695;22;20146;-91
2021/09/20 16:35:01;;;;;;;13.23;11.93;;;27.80;63.90;;;;;;6249601;22;20158;-89
2021/09/20 16:37:26;;;;;;;13.30;12.00;;;27.40;64.30;;;;;;6248790;22;20158;-89
2021/09/20 16:39:52;;;;;;;15.43;12.20;;;27.10;65.00;;;;;;6275257;22;20193;-84
2021/09/20 16:42:18;;;;;;;12.87;11.57;;;26.80;65.10;;;;;;6249189;22;20235;-82
2021/09/20 16:44:43;;;;;;;14.10;12.60;;;26.40;65.40;;;;;;6250846;22;20274;-90
2021/09/20 16:47:10;;;;;;;13.80;12.50;;;26.20;65.90;;;;;;6250760;22;20147;-89
2021/09/20 16:49:35;;;;;;;14.57;12.97;;;25.90;66.30;;;;;;6251109;22;20236;-90
2021/09/20 16:52:04;;;;;;;14.20;12.13;;;25.90;66.20;;;;;;6250875;22;20322;-90
2021/09/20 16:54:31;;;;;;;13.67;12.37;;;25.80;66.30;;;;;;6250604;22;20150;-86
2021/09/20 16:56:57;;;;;;;14.13;11.73;;;25.70;66.50;;;;;;6251002;22;20165;-90
2021/09/20 16:59:23;;;;;;;13.20;11.90;;;25.60;67.20;;;;;;6251006;22;20642;-90
2021/09/20 17:01:48;;;;;;;13.27;11.27;;;25.50;66.90;;;;;;6251037;22;20150;-90
2021/09/20 17:04:15;;;;;;;12.97;11.77;;;25.40;67.10;;;;;;6276434;22;20142;-90
2021/09/20 17:06:43;;;;;;;13.87;12.47;;;25.40;66.90;;;;;;6248236;22;20153;-90
2021/09/20 17:09:09;;;;;;;13.23;11.83;;;25.20;67.80;;;;;;6249059;22;20154;-90
2021/09/20 17:11:34;;;;;;;12.73;11.43;;;25.00;67.70;;;;;;6250325;22;20192;-90
2021/09/20 17:14:00;;;;;;;11.87;10.57;;;25.00;67.90;;;;;;6250025;22;20454;-87
2021/09/20 17:16:26;;;;;;;12.43;10.90;;;24.70;68.60;;;;;;6251269;22;20142;-90
2021/09/20 17:18:51;;;;;;;12.30;11.10;;;24.30;69.70;;;;;;6278766;22;20170;-88
2021/09/20 17:21:22;;;;;;;12.33;11.13;;;24.20;69.60;;;;;;6279387;22;20203;-83
2021/09/20 17:23:50;;;;;;;12.63;10.53;;;24.20;69.50;;;;;;6263954;22;20584;-82
2021/09/20 17:26:16;;;;;;;11.63;10.43;;;24.10;70.10;;;;;;6263838;22;20178;-90
2021/09/20 17:28:42;;;;;;;11.27;10.07;;;23.90;70.60;;;;;;6281989;22;20162;-90
2021/09/20 17:31:08;;;;;;;12.17;10.97;;;23.80;70.70;;;;;;6250202;22;20148;-87
2021/09/20 17:33:34;;;;;;;11.60;10.27;;;23.60;71.00;;;;;;6250410;22;20146;-83
2021/09/20 17:36:00;;;;;;;12.07;10.37;;;23.50;71.60;;;;;;6250389;22;20151;-90
2021/09/20 17:38:26;;;;;;;14.23;10.97;;;23.30;72.10;;;;;;6250250;22;20174;-91
2021/09/20 17:40:54;;;;;;;11.70;10.50;;;23.40;71.70;;;;;;6249334;22;20212;-82
2021/09/20 17:43:20;;;;;;;10.67;9.57;;;23.10;72.40;;;;;;6250076;22;20174;-89
2021/09/20 17:45:46;;;;;;;10.17;9.13;;;23.10;72.30;;;;;;6249578;22;20154;-88
2021/09/20 17:48:13;;;;;;;10.57;9.57;;;22.90;72.50;;;;;;6250453;22;20150;-83
2021/09/20 17:50:39;;;;;;;10.83;9.73;;;22.80;73.10;;;;;;6249776;22;20150;-83
2021/09/20 17:53:04;;;;;;;11.43;9.27;;;22.70;73.30;;;;;;6277441;22;20158;-87
2021/09/20 17:55:31;;;;;;;10.27;9.10;;;22.80;73.20;;;;;;6250127;22;20174;-83
2021/09/20 17:57:56;;;;;;;10.10;9.03;;;22.60;73.70;;;;;;6250256;22;20281;-83
2021/09/20 18:00:22;;;;;;;11.13;9.00;;;22.60;73.90;;;;;;6249656;22;20683;-82
2021/09/20 18:02:49;;;;;;;10.63;8.37;;;22.40;74.30;;;;;;6276674;22;20132;-85
2021/09/20 18:05:15;;;;;;;12.03;8.43;;;22.40;74.70;;;;;;6249642;22;20637;-84
2021/09/20 18:07:41;;;;;;;11.00;9.23;;;22.30;75.30;;;;;;6249947;22;20149;-90
2021/09/20 18:10:09;;;;;;;10.53;9.43;;;22.30;75.10;;;;;;6277220;22;20157;-90
2021/09/20 18:12:35;;;;;;;9.53;8.40;;;22.30;74.80;;;;;;6249388;22;20156;-91
2021/09/20 18:15:01;;;;;;;12.47;9.63;;;22.10;75.80;;;;;;6249241;22;20208;-90
2021/09/20 18:17:26;;;;;;;9.40;8.40;;;22.00;76.20;;;;;;6249774;22;20146;-84
2021/09/20 18:19:52;;;;;;;9.60;8.03;;;22.10;75.70;;;;;;6249760;22;20221;-87
2021/09/20 18:22:18;;;;;;;9.17;8.27;;;22.10;76.10;;;;;;6249852;22;20189;-82
2021/09/20 18:24:43;;;;;;;9.60;8.53;;;22.00;76.40;;;;;;6249648;22;20238;-84
2021/09/20 18:27:09;;;;;;;11.37;8.17;;;22.10;76.40;;;;;;6249531;22;20170;-87
2021/09/20 18:29:36;;;;;;;8.73;7.90;;;22.10;76.30;;;;;;6276354;22;20131;-86
2021/09/20 18:32:03;;;;;;;10.13;8.50;;;22.10;76.40;;;;;;6249711;22;20495;-91
2021/09/20 18:34:29;;;;;;;11.97;9.40;;;22.20;76.10;;;;;;6248497;22;20233;-90
2021/09/20 18:36:55;;;;;;;9.83;8.03;;;22.30;76.00;;;;;;6247132;22;20517;-87
2021/09/20 18:39:21;;;;;;;12.90;8.40;;;22.20;75.40;;;;;;6247632;22;20224;-87
2021/09/20 18:41:47;;;;;;;9.13;8.10;;;22.20;75.30;;;;;;6249957;22;20151;-90
2021/09/20 18:44:14;;;;;;;9.83;7.67;;;22.20;74.90;;;;;;6249877;22;20155;-88
2021/09/20 18:46:40;;;;;;;10.03;8.30;;;22.20;74.90;;;;;;6248525;22;20226;-87
2021/09/20 18:49:05;;;;;;;10.47;8.30;;;22.10;74.90;;;;;;6249103;22;20204;-88
2021/09/20 18:51:32;;;;;;;8.50;7.30;;;22.10;75.10;;;;;;6249524;22;20482;-84
2021/09/20 18:53:58;;;;;;;9.43;7.40;;;21.90;75.30;;;;;;6249302;22;20443;-90
2021/09/20 18:56:24;;;;;;;8.93;7.13;;;21.80;75.00;;;;;;6249767;22;20151;-86
2021/09/20 18:58:49;;;;;;;9.87;7.20;;;21.70;74.50;;;;;;6251175;22;20223;-90
2021/09/20 19:01:15;;;;;;;10.60;6.73;;;21.50;74.70;;;;;;6252138;22;20162;-85
2021/09/20 19:03:41;;;;;;;6.73;6.03;;;21.40;74.40;;;;;;6251445;22;20146;-83
2021/09/20 19:06:07;;;;;;;7.93;6.30;;;21.20;74.30;;;;;;6251550;22;20150;-82
2021/09/20 19:08:33;;;;;;;9.77;6.70;;;21.20;74.80;;;;;;6278062;22;20138;-89
2021/09/20 19:10:59;;;;;;;9.60;5.80;;;21.10;75.30;;;;;;6250851;22;20170;-87
2021/09/20 19:13:26;;;;;;;8.57;5.73;;;21.10;74.90;;;;;;6278384;22;20223;-89
2021/09/20 19:15:56;;;;;;;8.10;5.67;;;21.10;74.50;;;;;;6250421;22;20139;-89
2021/09/20 19:18:33;;;;;;;6.23;5.30;;;21.00;74.90;;;;;;6251084;22;20176;-86
2021/09/20 19:21:00;;;;;;;6.63;5.73;;;20.90;75.20;;;;;;6250742;22;20188;-88
2021/09/20 19:23:25;;;;;;;7.53;5.53;;;20.90;75.40;;;;;;6271832;22;20785;-83
2021/09/20 19:25:51;;;;;;;6.57;4.57;;;20.70;75.30;;;;;;6247022;22;20171;-88
2021/09/20 19:28:16;;;;;;;8.33;5.10;;;20.70;75.00;;;;;;6277053;22;20201;-89
2021/09/20 19:30:42;;;;;;;7.43;5.13;;;20.80;74.60;;;;;;6252033;22;20181;-85
2021/09/20 19:33:08;;;;;;;8.40;5.10;;;20.60;75.10;;;;;;6251575;22;20144;-82
2021/09/20 19:35:34;;;;;;;7.00;5.13;;;20.60;75.10;;;;;;6252609;22;20153;-83
2021/09/20 19:38:02;;;;;;;10.80;4.97;;;20.60;75.30;;;;;;6277170;22;20629;-86
2021/09/20 19:40:28;;;;;;;7.13;4.53;;;20.60;74.80;;;;;;6246288;22;20165;-87
2021/09/20 19:42:54;;;;;;;7.83;4.73;;;20.60;74.60;;;;;;6244053;22;20153;-84
2021/09/20 19:45:21;;;;;;;7.60;4.60;;;20.70;74.40;;;;;;6242992;22;20166;-84
2021/09/20 19:47:49;;;;;;;7.60;4.60;;;20.50;74.90;;;;;;6246372;22;20219;-87
2021/09/20 19:50:19;;;;;;;6.33;4.70;;;20.50;74.60;;;;;;6251505;22;20151;-83
2021/09/20 19:52:45;;;;;;;5.77;4.77;;;20.40;75.40;;;;;;6250280;22;20139;-89
2021/09/20 19:55:11;;;;;;;6.37;4.60;;;20.30;75.40;;;;;;6277467;22;20191;-87
2021/09/20 19:57:37;;;;;;;6.53;4.47;;;20.30;75.60;;;;;;6250473;22;20195;-88
2021/09/20 20:00:03;;;;;;;4.70;4.17;;;20.40;75.50;;;;;;6250320;22;20175;-86
2021/09/20 20:02:29;;;;;;;9.10;4.77;;;20.50;75.20;;;;;;6249746;22;20639;-89
2021/09/20 20:04:55;;;;;;;5.57;4.40;;;20.50;74.60;;;;;;6250573;22;20153;-82
2021/09/20 20:07:21;;;;;;;5.23;4.23;;;20.40;75.00;;;;;;6278115;22;20143;-82
2021/09/20 20:09:47;;;;;;;7.00;4.80;;;20.30;75.10;;;;;;6249800;22;20156;-83
2021/09/20 20:12:13;;;;;;;7.57;4.50;;;20.30;75.50;;;;;;6250685;22;20167;-83
2021/09/20 20:14:39;;;;;;;8.10;4.80;;;20.20;76.60;;;;;;6250374;22;20140;-89
2021/09/20 20:17:05;;;;;;;7.23;4.57;;;20.00;76.20;;;;;;6250245;22;20165;-85
2021/09/20 20:19:31;;;;;;;6.67;4.70;;;20.00;76.20;;;;;;6277531;22;20616;-88
2021/09/20 20:21:56;;;;;;;4.83;3.80;;;20.10;75.90;;;;;;6250829;22;20172;-86
2021/09/20 20:24:22;;;;;;;6.97;4.43;;;20.00;76.00;;;;;;6247311;22;20153;-86
2021/09/20 20:26:50;;;;;;;9.03;4.33;;;19.90;76.10;;;;;;6250612;22;20149;-84
2021/09/20 20:29:16;;;;;;;7.77;4.27;;;19.80;76.30;;;;;;6250200;22;20229;-87
2021/09/20 20:31:43;;;;;;;7.43;3.87;;;19.90;76.30;;;;;;6250153;22;20152;-84